Time;durP1;ratioP1;P1;durP2;ratioP2;P2;SDS_P1;SDS_P2;PMS_P1;PMS_P2;Temp;Humidity;BMP_temperature;BMP_pressure;BME280_temperature;BME280_humidity;BME280_pressure;Samples;Min_cycle;Max_cycle;Signal;HPM_P1;HPM_P2
2024/02/18 00:01:41;;;;;;;1.95;1.77;;;;;;;-0.91;90.45;101239.16;5041552;28;20283;-68
2024/02/18 00:04:07;;;;;;;1.63;1.20;;;;;;;-0.97;89.66;101232.50;5045337;28;20049;-69
2024/02/18 00:06:33;;;;;;;1.60;1.50;;;;;;;-1.07;88.12;101231.28;5040598;28;20291;-69
2024/02/18 00:08:59;;;;;;;1.50;1.40;;;;;;;-1.04;87.69;101249.41;5044403;28;20045;-65
2024/02/18 00:11:25;;;;;;;1.30;1.20;;;;;;;-1.28;84.51;101228.78;5035239;28;20363;-69
2024/02/18 00:13:51;;;;;;;1.40;1.30;;;;;;;-1.10;84.35;101261.03;5043339;28;20124;-67
2024/02/18 00:16:17;;;;;;;1.40;1.30;;;;;;;-1.22;85.23;101237.25;5025709;28;20688;-68
2024/02/18 00:18:44;;;;;;;2.03;1.47;;;;;;;-1.26;83.52;101257.47;5041750;28;20489;-67
2024/02/18 00:21:19;;;;;;;1.50;1.40;;;;;;;-1.24;81.12;101253.00;5040728;28;20107;-68
2024/02/18 00:23:45;;;;;;;1.50;1.40;;;;;;;-1.19;80.79;101256.22;5039864;28;20319;-69
2024/02/18 00:26:13;;;;;;;1.70;1.33;;;;;;;-1.32;80.35;101252.53;5038204;28;20292;-67
2024/02/18 00:28:39;;;;;;;1.60;1.50;;;;;;;-1.18;78.76;101286.66;5046271;28;20299;-67
2024/02/18 00:31:04;;;;;;;1.60;1.40;;;;;;;-1.30;78.27;101271.59;5042360;28;20041;-66
2024/02/18 00:33:30;;;;;;;1.40;1.30;;;;;;;-1.45;78.35;101264.47;5038392;28;20041;-68
2024/02/18 00:35:56;;;;;;;1.40;1.30;;;;;;;-1.56;76.61;101265.84;5040790;28;20139;-67
2024/02/18 00:38:21;;;;;;;1.67;1.47;;;;;;;-1.61;76.16;101257.41;5032638;28;20139;-68
2024/02/18 00:40:47;;;;;;;2.57;1.40;;;;;;;-1.44;78.32;101305.41;5047809;28;20052;-68
2024/02/18 00:43:12;;;;;;;2.23;1.50;;;;;;;-1.56;77.88;101281.53;5041515;28;20144;-67
2024/02/18 00:45:38;;;;;;;1.63;1.53;;;;;;;-1.49;77.15;101312.56;5042034;28;20037;-70
2024/02/18 00:48:04;;;;;;;1.50;1.40;;;;;;;-1.54;77.44;101319.78;5045663;28;20040;-68
2024/02/18 00:50:30;;;;;;;2.03;1.93;;;;;;;-1.94;77.02;101279.88;5044633;28;20488;-67
2024/02/18 00:52:55;;;;;;;1.37;1.27;;;;;;;-1.60;74.60;101313.09;5040195;28;20276;-68
2024/02/18 00:55:21;;;;;;;1.33;1.23;;;;;;;-1.72;74.73;101306.69;5041304;28;20037;-66
2024/02/18 00:57:47;;;;;;;1.47;1.33;;;;;;;-1.75;75.29;101296.34;5042167;28;20037;-71
2024/02/18 01:00:13;;;;;;;1.50;1.40;;;;;;;-1.60;76.32;101337.44;5037781;28;20635;-69
2024/02/18 01:02:38;;;;;;;1.93;1.30;;;;;;;-1.58;77.17;101330.38;5040723;28;20038;-67
2024/02/18 01:05:04;;;;;;;1.50;1.40;;;;;;;-1.62;76.63;101338.44;5040613;28;20033;-68
2024/02/18 01:07:30;;;;;;;1.57;1.47;;;;;;;-1.75;77.26;101327.69;5047250;28;20095;-67
2024/02/18 01:09:55;;;;;;;1.30;1.20;;;;;;;-1.70;76.47;101330.13;5044576;28;20492;-67
2024/02/18 01:12:21;;;;;;;1.50;1.40;;;;;;;-1.66;77.06;101342.97;5040553;28;20120;-67
2024/02/18 01:14:46;;;;;;;1.30;1.20;;;;;;;-1.69;76.76;101348.31;5040210;28;20120;-67
2024/02/18 01:17:12;;;;;;;1.40;1.30;;;;;;;-1.68;73.09;101344.78;5043706;28;20033;-68
2024/02/18 01:19:38;;;;;;;1.40;1.30;;;;;;;-1.95;73.61;101309.50;5046474;28;20593;-68
2024/02/18 01:22:04;;;;;;;1.60;1.50;;;;;;;-1.86;73.57;101337.78;5042587;28;20033;-68
2024/02/18 01:24:29;;;;;;;2.13;2.03;;;;;;;-1.76;73.99;101359.09;5048123;28;20103;-69
2024/02/18 01:26:57;;;;;;;2.80;2.40;;;;;;;-1.71;74.89;101365.81;5040283;28;20280;-67
2024/02/18 01:29:22;;;;;;;1.40;1.30;;;;;;;-1.75;73.13;101363.41;5037750;28;20782;-67
2024/02/18 01:31:49;;;;;;;2.93;2.70;;;;;;;-1.74;73.91;101367.69;5040569;28;20359;-69
2024/02/18 01:34:15;;;;;;;1.50;1.40;;;;;;;-1.69;74.71;101364.00;5036676;28;20041;-69
2024/02/18 01:36:41;;;;;;;2.10;1.57;;;;;;;-1.80;74.16;101354.94;5045427;28;20275;-67
2024/02/18 01:39:07;;;;;;;1.53;1.43;;;;;;;-1.85;74.10;101357.75;5036771;28;20329;-67
2024/02/18 01:41:33;;;;;;;1.37;1.27;;;;;;;-1.73;75.31;101372.88;5046998;28;20041;-68
2024/02/18 01:43:59;;;;;;;1.27;1.20;;;;;;;-1.68;75.87;101386.56;5036792;28;20310;-67
2024/02/18 01:46:25;;;;;;;1.20;1.10;;;;;;;-1.75;76.04;101366.84;5040796;28;20352;-68
2024/02/18 01:48:51;;;;;;;1.33;1.23;;;;;;;-1.82;74.80;101359.38;5036095;28;20037;-70
2024/02/18 01:51:18;;;;;;;3.53;2.40;;;;;;;-1.89;75.37;101356.19;5033596;28;20287;-69
2024/02/18 01:53:44;;;;;;;1.30;1.20;;;;;;;-1.88;76.56;101370.94;5041501;28;20333;-66
2024/02/18 01:56:12;;;;;;;1.40;1.30;;;;;;;-2.69;77.02;101224.97;5040019;28;20280;-68
2024/02/18 01:58:38;;;;;;;1.87;1.40;;;;;;;-1.81;76.98;101380.19;5042713;28;20284;-68
2024/02/18 02:01:05;;;;;;;1.30;1.20;;;;;;;-1.65;77.86;101383.81;5039411;28;20267;-68
2024/02/18 02:03:32;;;;;;;1.93;1.37;;;;;;;-1.68;74.41;101415.31;5047288;28;20276;-67
2024/02/18 02:06:00;;;;;;;1.20;1.10;;;;;;;-1.86;74.06;101392.59;5045969;28;20279;-67
2024/02/18 02:08:26;;;;;;;1.35;1.25;;;;;;;-1.78;74.64;101426.22;5039988;28;20290;-67
2024/02/18 02:10:52;;;;;;;1.48;1.38;;;;;;;-1.94;72.89;101392.09;5039631;28;20043;-66
2024/02/18 02:13:18;;;;;;;1.30;1.20;;;;;;;-2.13;72.75;101393.81;5042883;28;20029;-72
2024/02/18 02:15:44;;;;;;;1.60;1.50;;;;;;;-2.23;73.79;101378.56;5031447;28;20037;-71
2024/02/18 02:18:09;;;;;;;1.47;1.37;;;;;;;-2.06;73.71;101410.91;5038813;28;20044;-68
2024/02/18 02:20:35;;;;;;;1.50;1.40;;;;;;;-2.09;74.72;101411.03;5032680;28;20045;-68
2024/02/18 02:23:01;;;;;;;1.40;1.30;;;;;;;-2.03;74.10;101431.63;5049668;28;20033;-68
2024/02/18 02:25:26;;;;;;;1.70;1.60;;;;;;;-2.02;75.56;101444.66;5037687;28;20057;-68
2024/02/18 02:28:04;;;;;;;1.33;1.23;;;;;;;-2.00;74.93;101426.31;5038181;28;20496;-68
2024/02/18 02:30:29;;;;;;;1.27;1.20;;;;;;;-1.97;75.06;101428.78;5044558;28;20077;-66
2024/02/18 02:32:55;;;;;;;3.03;1.50;;;;;;;-2.05;74.72;101418.66;5048392;28;20302;-67
2024/02/18 02:35:21;;;;;;;2.83;1.30;;;;;;;-2.10;75.88;101427.59;5039734;28;20054;-68
2024/02/18 02:37:47;;;;;;;1.23;1.13;;;;;;;-2.00;77.08;101439.38;5040481;28;20041;-68
2024/02/18 02:40:13;;;;;;;1.67;1.40;;;;;;;-2.03;78.71;101440.31;5041583;28;20168;-67
2024/02/18 02:42:39;;;;;;;1.40;1.30;;;;;;;-2.08;79.21;101444.03;5041475;28;20711;-69
2024/02/18 02:45:05;;;;;;;1.30;1.20;;;;;;;-1.99;80.25;101459.34;5046998;28;20379;-69
2024/02/18 02:47:31;;;;;;;1.40;1.30;;;;;;;-2.29;79.41;101407.53;5045714;28;20049;-67
2024/02/18 02:49:56;;;;;;;1.60;1.50;;;;;;;-1.99;79.45;101467.16;5044380;28;20304;-67
2024/02/18 02:52:22;;;;;;;1.30;1.20;;;;;;;-2.03;79.67;101465.56;5041821;28;20108;-67
2024/02/18 02:54:48;;;;;;;1.30;1.20;;;;;;;-2.95;79.57;101339.00;5044864;28;20124;-68
2024/02/18 02:57:13;;;;;;;1.53;1.43;;;;;;;-2.02;79.10;101486.41;5049875;28;20036;-67
2024/02/18 02:59:39;;;;;;;1.50;1.40;;;;;;;-2.12;78.56;101463.34;5039778;28;20060;-67
2024/02/18 03:02:04;;;;;;;1.37;1.27;;;;;;;-2.12;78.38;101463.34;5044651;28;20028;-70
2024/02/18 03:04:30;;;;;;;1.40;1.30;;;;;;;-2.31;77.71;101448.50;5043583;28;20033;-67
2024/02/18 03:06:55;;;;;;;1.30;1.20;;;;;;;-2.13;77.78;101495.59;5029173;28;20033;-69
2024/02/18 03:09:21;;;;;;;1.57;1.47;;;;;;;-2.13;77.34;101498.19;5051686;28;20033;-71
2024/02/18 03:11:47;;;;;;;1.40;1.30;;;;;;;-2.22;77.89;101478.56;5040787;28;20039;-68
2024/02/18 03:14:12;;;;;;;2.53;1.33;;;;;;;-2.37;77.91;101453.09;5044408;28;20492;-66
2024/02/18 03:16:38;;;;;;;1.40;1.30;;;;;;;-2.11;77.88;101497.22;5042273;28;20029;-70
2024/02/18 03:19:04;;;;;;;2.50;1.20;;;;;;;-2.08;78.45;101504.06;5046113;28;20041;-68
2024/02/18 03:21:29;;;;;;;1.27;1.07;;;;;;;-2.16;77.11;101500.94;5032748;28;20063;-67
2024/02/18 03:23:55;;;;;;;1.47;1.37;;;;;;;-2.26;77.38;101487.44;5044366;28;20136;-68
2024/02/18 03:26:21;;;;;;;1.43;1.00;;;;;;;-2.18;78.19;101506.22;5041744;28;20065;-68
2024/02/18 03:28:46;;;;;;;1.50;1.40;;;;;;;-2.36;77.25;101466.06;5046893;28;20045;-68
2024/02/18 03:31:18;;;;;;;1.47;1.37;;;;;;;-2.16;76.99;101516.59;5025342;28;20333;-67
2024/02/18 03:33:45;;;;;;;1.40;1.30;;;;;;;-2.22;77.68;101497.69;5050582;28;20033;-67
2024/02/18 03:36:10;;;;;;;1.23;1.13;;;;;;;-2.16;77.38;101525.28;5040619;28;20417;-67
2024/02/18 03:38:36;;;;;;;2.00;1.77;;;;;;;-2.30;76.39;101532.84;5041785;28;20033;-68
2024/02/18 03:41:05;;;;;;;1.43;1.33;;;;;;;-2.28;77.89;101521.41;5043689;28;20049;-69
2024/02/18 03:43:31;;;;;;;1.40;1.30;;;;;;;-2.43;76.78;101524.63;5049655;28;20040;-67
2024/02/18 03:45:57;;;;;;;3.50;1.33;;;;;;;-2.44;76.84;101529.91;5041973;28;20038;-67
2024/02/18 03:48:23;;;;;;;1.52;1.40;;;;;;;-2.36;77.27;101549.56;5045667;28;20047;-67
2024/02/18 03:50:49;;;;;;;1.20;1.10;;;;;;;-2.43;76.84;101527.22;5043070;28;20625;-68
2024/02/18 03:53:14;;;;;;;3.23;1.50;;;;;;;-2.54;77.63;101504.19;5045224;28;20052;-66
2024/02/18 03:55:40;;;;;;;1.40;1.30;;;;;;;-2.54;77.42;101525.06;5038103;28;20044;-71
2024/02/18 03:58:05;;;;;;;1.73;1.37;;;;;;;-2.59;76.54;101528.78;5036955;28;20060;-70
2024/02/18 04:00:31;;;;;;;1.50;1.40;;;;;;;-2.44;77.43;101558.59;5042222;28;20125;-67
2024/02/18 04:02:56;;;;;;;1.70;1.60;;;;;;;-2.81;77.45;101500.06;5044828;28;20029;-68
2024/02/18 04:05:22;;;;;;;1.30;1.20;;;;;;;-2.41;77.06;101553.25;5046813;28;20041;-68
2024/02/18 04:07:48;;;;;;;2.33;1.43;;;;;;;-2.52;78.92;101551.09;5043938;28;20083;-66
2024/02/18 04:10:14;;;;;;;1.27;1.17;;;;;;;-2.36;78.41;101570.41;5035369;28;20033;-68
2024/02/18 04:12:40;;;;;;;2.72;2.50;;;;;;;-2.33;79.50;101580.72;5047712;28;20179;-67
2024/02/18 04:15:06;;;;;;;1.63;1.30;;;;;;;-2.30;80.11;101585.00;5046148;28;20124;-68
2024/02/18 04:17:31;;;;;;;1.43;1.20;;;;;;;-2.49;81.55;101564.00;5036223;28;20033;-69
2024/02/18 04:19:57;;;;;;;2.57;1.30;;;;;;;-2.54;82.37;101558.97;5043458;28;20487;-69
2024/02/18 04:22:22;;;;;;;1.30;1.20;;;;;;;-2.54;81.58;101566.78;5039754;28;20033;-67
2024/02/18 04:24:48;;;;;;;3.70;1.43;;;;;;;-2.40;82.62;101578.44;5044360;28;20053;-67
2024/02/18 04:27:15;;;;;;;2.17;1.60;;;;;;;-2.54;83.06;101551.16;5041846;28;20127;-68
2024/02/18 04:29:41;;;;;;;1.33;1.20;;;;;;;-2.56;83.20;101550.34;5046481;28;20045;-68
2024/02/18 04:32:07;;;;;;;1.47;1.37;;;;;;;-2.83;82.24;101510.56;5044364;28;20484;-68
2024/02/18 04:34:32;;;;;;;1.80;1.50;;;;;;;-2.54;81.94;101556.34;5042206;28;20037;-66
2024/02/18 04:36:58;;;;;;;1.77;1.33;;;;;;;-2.51;81.93;101589.28;5047715;28;20044;-67
2024/02/18 04:39:24;;;;;;;2.10;1.93;;;;;;;-2.54;82.80;101584.19;5041761;28;20049;-69
2024/02/18 04:41:50;;;;;;;1.30;1.20;;;;;;;-2.86;81.94;101544.56;5038977;28;20049;-68
2024/02/18 04:44:16;;;;;;;1.37;1.27;;;;;;;-2.79;81.72;101573.84;5025318;28;20388;-69
2024/02/18 04:46:42;;;;;;;1.40;1.30;;;;;;;-2.74;82.73;101599.75;5037932;28;20064;-67
2024/02/18 04:49:07;;;;;;;1.40;1.30;;;;;;;-2.82;82.42;101607.84;5044014;28;20486;-68
2024/02/18 04:51:33;;;;;;;1.57;1.47;;;;;;;-2.90;82.97;101587.25;5033906;28;20037;-69
2024/02/18 04:53:58;;;;;;;1.63;1.40;;;;;;;-2.91;82.41;101603.81;5041248;28;20028;-67
2024/02/18 04:56:24;;;;;;;1.67;1.43;;;;;;;-3.09;82.03;101594.06;5045955;28;20483;-70
2024/02/18 04:58:49;;;;;;;1.50;1.40;;;;;;;-2.98;82.55;101628.41;5044853;28;20087;-69
2024/02/18 05:01:15;;;;;;;2.13;1.40;;;;;;;-3.06;82.55;101614.81;5033975;28;20106;-67
2024/02/18 05:03:41;;;;;;;1.83;1.30;;;;;;;-3.12;81.93;101604.59;5038992;28;20068;-69
2024/02/18 05:06:13;;;;;;;1.70;1.60;;;;;;;-3.16;81.84;101616.91;5046435;28;20064;-66
2024/02/18 05:08:39;;;;;;;1.60;1.50;;;;;;;-3.32;82.04;101591.44;5041290;28;20037;-66
2024/02/18 05:11:05;;;;;;;1.30;1.20;;;;;;;-3.18;81.70;101626.53;5038331;28;20091;-66
2024/02/18 05:13:30;;;;;;;1.97;1.30;;;;;;;-3.36;81.32;101613.28;5043748;28;20076;-67
2024/02/18 05:15:56;;;;;;;1.43;1.33;;;;;;;-3.13;81.78;101649.81;5042244;28;20044;-68
2024/02/18 05:18:22;;;;;;;1.63;1.40;;;;;;;-3.19;81.67;101650.84;5042380;28;20742;-67
2024/02/18 05:20:48;;;;;;;1.70;1.55;;;;;;;-3.31;81.98;101632.19;5050414;28;20032;-68
2024/02/18 05:23:14;;;;;;;1.40;1.30;;;;;;;-3.32;81.68;101646.13;5037760;28;20123;-70
2024/02/18 05:25:41;;;;;;;1.60;1.50;;;;;;;-3.40;81.40;101643.78;5041922;28;20413;-67
2024/02/18 05:28:07;;;;;;;1.40;1.30;;;;;;;-3.42;80.48;101636.94;5041849;28;20045;-68
2024/02/18 05:30:33;;;;;;;2.55;1.48;;;;;;;-3.41;80.45;101649.06;5037136;28;20045;-67
2024/02/18 05:32:59;;;;;;;1.50;1.40;;;;;;;-3.49;81.91;101647.53;5040690;28;20425;-68
2024/02/18 05:35:25;;;;;;;1.80;1.60;;;;;;;-3.53;81.25;101651.16;5044693;28;20036;-68
2024/02/18 05:37:51;;;;;;;1.60;1.50;;;;;;;-3.41;80.67;101673.34;5041212;28;20129;-67
2024/02/18 05:40:17;;;;;;;1.50;1.40;;;;;;;-3.41;81.25;101683.75;5043597;28;20032;-69
2024/02/18 05:42:44;;;;;;;1.80;1.42;;;;;;;-3.51;81.04;101670.19;5044198;28;20048;-67
2024/02/18 05:45:10;;;;;;;1.40;1.30;;;;;;;-3.57;79.96;101675.59;5043633;28;20052;-68
2024/02/18 05:47:36;;;;;;;1.50;1.40;;;;;;;-3.57;80.09;101674.75;5037097;28;20045;-68
2024/02/18 05:50:02;;;;;;;1.40;1.30;;;;;;;-3.80;80.41;101654.66;5040471;28;20128;-66
2024/02/18 05:52:30;;;;;;;1.40;1.30;;;;;;;-3.68;80.26;101674.25;5046022;28;20098;-69
2024/02/18 05:54:55;;;;;;;1.67;1.57;;;;;;;-3.64;80.53;101679.31;5034896;28;20439;-68
2024/02/18 05:57:21;;;;;;;1.80;1.70;;;;;;;-3.76;80.42;101661.47;5042028;28;20037;-72
2024/02/18 05:59:46;;;;;;;2.30;1.40;;;;;;;-3.68;80.83;101682.91;5044318;28;20037;-69
2024/02/18 06:02:12;;;;;;;1.60;1.50;;;;;;;-3.51;80.44;101701.44;5042589;28;20552;-68
2024/02/18 06:04:38;;;;;;;1.67;1.57;;;;;;;-3.68;80.55;101682.06;5035039;28;20064;-68
2024/02/18 06:07:03;;;;;;;1.60;1.50;;;;;;;-3.76;79.60;101679.69;5041795;28;20106;-67
2024/02/18 06:09:29;;;;;;;3.60;1.50;;;;;;;-3.57;80.13;101709.44;5046663;28;20056;-69
2024/02/18 06:11:55;;;;;;;1.50;1.40;;;;;;;-3.54;80.02;101709.34;5037281;28;20037;-66
2024/02/18 06:14:21;;;;;;;2.03;1.90;;;;;;;-3.64;80.84;101692.31;5033974;28;20120;-69
2024/02/18 06:16:46;;;;;;;1.48;1.38;;;;;;;-3.71;80.43;101687.38;5046574;28;20036;-70
2024/02/18 06:19:12;;;;;;;1.47;1.37;;;;;;;-3.60;80.35;101706.09;5049279;28;20048;-71
2024/02/18 06:21:38;;;;;;;1.90;1.80;;;;;;;-3.53;79.70;101724.06;5016776;28;20416;-69
2024/02/18 06:24:04;;;;;;;7.50;2.00;;;;;;;-3.51;78.72;101735.28;5018305;28;20044;-72
2024/02/18 06:26:57;;;;;;;2.53;2.10;;;;;;;-3.49;79.38;101730.88;5035944;28;20147;-68
2024/02/18 06:29:23;;;;;;;1.90;1.80;;;;;;;-3.69;79.05;101695.97;5019333;28;20045;-68
2024/02/18 06:31:49;;;;;;;1.40;1.30;;;;;;;-3.60;79.00;101712.16;5031514;28;20194;-68
2024/02/18 06:34:15;;;;;;;1.60;1.50;;;;;;;-3.40;79.07;101732.34;5053460;28;20045;-67
2024/02/18 06:36:42;;;;;;;2.10;1.90;;;;;;;-3.49;78.26;101720.44;5042131;28;20045;-68
2024/02/18 06:39:07;;;;;;;1.63;1.50;;;;;;;-3.40;78.58;101753.19;5041245;28;20029;-67
2024/02/18 06:41:33;;;;;;;1.70;1.60;;;;;;;-3.56;77.71;101726.75;5043346;28;20409;-70
2024/02/18 06:43:58;;;;;;;1.80;1.70;;;;;;;-3.56;77.61;101747.59;5041253;28;20044;-70
2024/02/18 06:46:24;;;;;;;3.47;1.60;;;;;;;-3.65;77.72;101734.03;5038051;28;20052;-71
2024/02/18 06:48:51;;;;;;;2.67;1.60;;;;;;;-3.62;77.86;101755.59;5045711;28;20545;-72
2024/02/18 06:51:17;;;;;;;1.98;1.88;;;;;;;-3.54;78.52;101769.22;5045379;28;20155;-71
2024/02/18 06:53:43;;;;;;;2.10;1.90;;;;;;;-3.49;78.81;101762.13;5045829;28;20044;-70
2024/02/18 06:56:09;;;;;;;3.67;1.87;;;;;;;-3.46;77.41;101774.22;5042662;28;20033;-70
2024/02/18 06:58:35;;;;;;;1.75;1.65;;;;;;;-3.44;77.22;101781.06;5033749;28;20120;-71
2024/02/18 07:01:00;;;;;;;2.63;1.63;;;;;;;-3.48;77.60;101769.03;5045744;28;20061;-72
2024/02/18 07:03:26;;;;;;;1.57;1.47;;;;;;;-3.38;76.33;101787.84;5033624;28;20041;-69
2024/02/18 07:05:52;;;;;;;2.67;2.17;;;;;;;-3.42;76.66;101793.19;5043058;28;20082;-69
2024/02/18 07:08:17;;;;;;;4.73;2.03;;;;;;;-3.56;76.62;101765.81;5038589;28;20040;-73
2024/02/18 07:10:43;;;;;;;2.60;2.00;;;;;;;-3.42;76.67;101808.81;5038362;28;20443;-71
2024/02/18 07:13:08;;;;;;;3.00;1.57;;;;;;;-3.39;77.25;101801.75;5046316;28;20615;-72
2024/02/18 07:15:34;;;;;;;2.03;1.60;;;;;;;-3.54;75.22;101769.22;5042502;28;20551;-74
2024/02/18 07:18:00;;;;;;;1.90;1.70;;;;;;;-3.51;77.01;101797.78;5031150;28;20128;-74
2024/02/18 07:20:27;;;;;;;2.17;1.98;;;;;;;-3.39;76.46;101803.53;5037771;28;20025;-71
2024/02/18 07:22:52;;;;;;;2.35;1.65;;;;;;;-3.38;77.22;101797.41;5043379;28;20091;-72
2024/02/18 07:25:18;;;;;;;2.03;1.60;;;;;;;-3.40;74.95;101794.84;5046852;28;20049;-72
2024/02/18 07:27:44;;;;;;;2.22;1.60;;;;;;;-3.55;74.94;101777.94;5040729;28;20044;-70
2024/02/18 07:30:14;;;;;;;1.90;1.80;;;;;;;-3.52;74.73;101793.47;5045184;28;20463;-71
2024/02/18 07:32:40;;;;;;;1.70;1.60;;;;;;;-3.52;74.93;101809.09;5033373;28;20136;-72
2024/02/18 07:35:05;;;;;;;1.93;1.83;;;;;;;-3.60;75.22;101792.84;5026899;28;20404;-72
2024/02/18 07:37:31;;;;;;;1.60;1.50;;;;;;;-3.66;74.12;101798.25;5054711;28;20056;-71
2024/02/18 07:39:57;;;;;;;1.60;1.50;;;;;;;-3.52;74.72;101829.06;5043760;28;20047;-68
2024/02/18 07:42:22;;;;;;;2.13;1.70;;;;;;;-3.48;74.21;101851.50;5043436;28;20044;-72
2024/02/18 07:44:48;;;;;;;2.43;1.60;;;;;;;-3.54;73.78;101847.34;5038713;28;20044;-70
2024/02/18 07:47:13;;;;;;;2.03;1.90;;;;;;;-3.49;74.19;101850.66;5050054;28;20132;-70
2024/02/18 07:49:39;;;;;;;3.47;1.67;;;;;;;-3.48;74.52;101849.75;5042435;28;20131;-70
2024/02/18 07:52:11;;;;;;;4.40;2.20;;;;;;;-3.49;76.13;101844.59;5049907;28;20527;-72
2024/02/18 07:54:37;;;;;;;1.60;1.50;;;;;;;-3.32;74.78;101871.00;5048434;28;20037;-71
2024/02/18 07:57:03;;;;;;;2.30;1.73;;;;;;;-3.35;74.52;101862.44;5048429;28;20060;-71
2024/02/18 07:59:28;;;;;;;5.20;2.00;;;;;;;-3.42;73.75;101847.91;5040967;28;20037;-69
2024/02/18 08:01:54;;;;;;;1.80;1.70;;;;;;;-3.17;74.03;101880.09;5021772;28;20049;-70
2024/02/18 08:04:20;;;;;;;1.80;1.70;;;;;;;-3.14;73.33;101886.06;5042624;28;20053;-69
2024/02/18 08:06:45;;;;;;;1.87;1.57;;;;;;;-3.19;73.64;101863.63;5044752;28;20090;-71
2024/02/18 08:09:11;;;;;;;1.60;1.50;;;;;;;-3.04;73.01;101867.53;5048081;28;20495;-67
2024/02/18 08:11:36;;;;;;;1.60;1.50;;;;;;;-2.97;71.22;101895.94;5040344;28;20045;-71
2024/02/18 08:14:02;;;;;;;1.70;1.60;;;;;;;-3.14;71.39;101880.00;5040360;28;20038;-68
2024/02/18 08:16:28;;;;;;;1.70;1.60;;;;;;;-3.12;71.49;101875.59;5033613;28;20386;-69
2024/02/18 08:18:55;;;;;;;4.00;1.85;;;;;;;-2.99;71.26;101874.28;5051458;28;20033;-71
2024/02/18 08:21:22;;;;;;;2.20;1.60;;;;;;;-2.81;71.10;101891.97;5016151;28;20135;-69
2024/02/18 08:23:49;;;;;;;1.60;1.50;;;;;;;-2.70;70.70;101911.59;5035301;28;20037;-71
2024/02/18 08:34:53;;;;;;;22.10;3.00;;;;;;;-3.50;70.51;101806.44;4954339;28;20535;-75
2024/02/18 08:37:49;;;;;;;;;;;;;;;;;;;;;
2024/02/18 08:40:18;;;;;;;4.75;1.80;;;;;;;-3.57;70.46;101807.53;4980958;28;20504;-69
2024/02/18 08:42:44;;;;;;;3.60;1.70;;;;;;;-2.94;70.07;101895.84;4989617;28;20129;-68
2024/02/18 08:45:10;;;;;;;2.28;1.58;;;;;;;-2.66;68.92;101931.47;5035448;28;20068;-69
2024/02/18 08:47:35;;;;;;;4.80;1.50;;;;;;;-2.65;69.20;101928.81;5045191;28;20485;-67
2024/02/18 08:50:02;;;;;;;3.93;1.70;;;;;;;-2.72;69.68;101916.03;5041632;28;20461;-68
2024/02/18 08:52:29;;;;;;;3.05;2.83;;;;;;;-2.65;69.03;101938.38;5047227;28;20484;-68
2024/02/18 08:54:55;;;;;;;1.40;1.30;;;;;;;-2.75;68.23;101921.34;5044659;28;20049;-67
2024/02/18 08:57:20;;;;;;;1.53;1.43;;;;;;;-3.44;69.07;101829.72;5041221;28;20390;-69
2024/02/18 08:59:46;;;;;;;2.03;1.70;;;;;;;-3.84;70.11;101759.75;5068508;28;20443;-67
2024/02/18 09:02:11;;;;;;;1.60;1.50;;;;;;;-2.83;68.82;101924.19;5041326;28;20494;-68
2024/02/18 09:04:37;;;;;;;1.90;1.80;;;;;;;-2.71;69.33;101949.00;5040630;28;20405;-68
2024/02/18 09:07:03;;;;;;;1.50;1.40;;;;;;;-2.69;68.87;101952.44;5046688;28;20072;-68
2024/02/18 09:09:30;;;;;;;1.80;1.70;;;;;;;-2.85;70.07;101910.38;5041616;28;20149;-69
2024/02/18 09:11:55;;;;;;;1.92;1.83;;;;;;;-2.78;68.04;101924.03;5044963;28;20037;-73
2024/02/18 09:14:21;;;;;;;2.33;1.97;;;;;;;-2.85;69.20;101916.44;5043074;28;20037;-69
2024/02/18 09:16:47;;;;;;;11.33;2.70;;;;;;;-2.37;68.90;101970.50;5041304;28;20043;-67
2024/02/18 09:19:12;;;;;;;1.77;1.67;;;;;;;-2.55;67.16;101939.81;5036611;28;20083;-72
2024/02/18 09:21:38;;;;;;;1.93;1.60;;;;;;;-2.45;66.01;101992.53;5040917;28;20040;-72
2024/02/18 09:24:04;;;;;;;1.60;1.50;;;;;;;-2.58;68.09;101950.34;5034720;28;20059;-69
2024/02/18 09:26:29;;;;;;;2.30;1.60;;;;;;;-2.42;67.51;101956.75;5035563;28;20068;-71
2024/02/18 09:28:55;;;;;;;1.93;1.70;;;;;;;-2.43;66.31;101960.25;5032347;28;20049;-71
2024/02/18 09:31:21;;;;;;;1.60;1.50;;;;;;;-2.54;64.74;101967.59;5016534;28;20389;-73
2024/02/18 09:33:51;;;;;;;1.70;1.60;;;;;;;-2.55;66.12;101974.56;5031552;28;20136;-75
2024/02/18 09:36:17;;;;;;;1.93;1.47;;;;;;;-2.68;65.67;101959.34;5031274;28;20258;-74
2024/02/18 09:38:42;;;;;;;1.43;1.33;;;;;;;-2.58;65.57;101960.78;5031480;28;20045;-72
2024/02/18 09:41:16;;;;;;;2.80;1.70;;;;;;;-2.52;65.40;101963.19;5040575;28;20119;-72
2024/02/18 09:43:44;;;;;;;2.47;1.60;;;;;;;-2.34;65.41;101999.09;5031131;28;20041;-72
2024/02/18 09:46:10;;;;;;;3.58;1.90;;;;;;;-2.32;65.49;101997.28;5030529;28;20053;-71
2024/02/18 09:48:37;;;;;;;2.63;1.50;;;;;;;-2.30;64.85;102003.31;5038545;28;20461;-71
2024/02/18 09:51:07;;;;;;;1.70;1.60;;;;;;;-2.32;64.46;101989.44;5027507;28;20141;-71
2024/02/18 09:53:35;;;;;;;1.90;1.65;;;;;;;-2.06;63.76;102022.50;5040036;28;20037;-73
2024/02/18 09:56:02;;;;;;;3.33;1.80;;;;;;;-1.95;64.42;102022.19;5034392;28;20132;-73
2024/02/18 09:58:28;;;;;;;1.75;1.65;;;;;;;-2.11;63.07;101989.66;5039902;28;20041;-71
2024/02/18 10:00:57;;;;;;;2.90;1.60;;;;;;;-1.87;63.67;102012.31;5015366;28;20056;-71
2024/02/18 10:03:23;;;;;;;1.73;1.57;;;;;;;-1.67;63.03;102040.38;5030236;28;20318;-72
2024/02/18 10:05:49;;;;;;;3.17;1.50;;;;;;;-1.72;62.10;102053.59;5031488;28;20315;-71
2024/02/18 10:08:14;;;;;;;4.30;1.70;;;;;;;-1.86;61.70;102045.34;5063990;28;20279;-71
2024/02/18 10:10:41;;;;;;;1.60;1.50;;;;;;;-1.99;61.04;102054.53;5039045;28;20045;-71
2024/02/18 10:13:07;;;;;;;1.55;1.45;;;;;;;-1.89;62.33;102045.47;5045095;28;20540;-70
2024/02/18 10:15:34;;;;;;;1.67;1.58;;;;;;;-1.92;61.06;102024.69;5038142;28;20050;-70
2024/02/18 10:18:02;;;;;;;2.30;2.10;;;;;;;-1.85;61.45;102023.56;5015400;28;20044;-70
2024/02/18 10:20:28;;;;;;;1.70;1.60;;;;;;;-1.77;61.57;102029.38;5041605;28;20313;-71
2024/02/18 10:22:54;;;;;;;1.90;1.80;;;;;;;-1.69;60.90;102047.41;5029161;28;20110;-74
2024/02/18 10:25:20;;;;;;;3.27;1.57;;;;;;;-1.79;60.33;102030.31;5028280;28;20061;-72
2024/02/18 10:27:46;;;;;;;1.90;1.70;;;;;;;-1.72;59.43;102035.31;5018024;28;20037;-71
2024/02/18 10:30:12;;;;;;;1.87;1.77;;;;;;;-1.89;59.04;102029.78;5034362;28;20033;-73
2024/02/18 10:32:38;;;;;;;1.88;1.60;;;;;;;-1.92;59.40;102032.50;5028389;28;21170;-72
2024/02/18 10:35:05;;;;;;;2.33;1.77;;;;;;;-1.96;59.05;102031.78;5029590;28;20526;-72
2024/02/18 10:37:41;;;;;;;2.33;2.10;;;;;;;-1.84;60.47;102043.53;5030087;28;20547;-72
2024/02/18 10:40:23;;;;;;;3.47;2.33;;;;;;;-1.62;60.93;102060.19;5057389;28;20050;-73
2024/02/18 10:42:58;;;;;;;2.60;1.87;;;;;;;-2.63;60.69;101900.91;5044115;28;20033;-73
2024/02/18 10:45:25;;;;;;;3.83;1.73;;;;;;;-1.73;59.42;102058.88;5037710;28;20280;-73
2024/02/18 10:47:55;;;;;;;3.47;1.60;;;;;;;-1.44;60.79;102097.06;5032741;28;20350;-69
2024/02/18 10:50:24;;;;;;;2.10;1.63;;;;;;;-1.72;60.03;102058.81;5035378;28;20722;-70
2024/02/18 10:53:28;;;;;;;1.73;1.58;;;;;;;-1.39;59.53;102109.03;5037361;28;20052;-72
2024/02/18 10:56:03;;;;;;;1.43;1.33;;;;;;;-1.31;59.83;102116.63;5039938;28;20048;-72
2024/02/18 10:58:28;;;;;;;2.57;1.63;;;;;;;-1.35;60.09;102094.09;5041933;28;20684;-70
2024/02/18 11:00:58;;;;;;;2.90;1.40;;;;;;;-1.41;59.39;102094.31;5038733;28;20317;-72
2024/02/18 11:03:29;;;;;;;1.30;1.20;;;;;;;-1.30;57.73;102124.41;5037172;28;20036;-71
2024/02/18 11:05:58;;;;;;;1.60;1.50;;;;;;;-1.37;58.22;102111.59;5041177;28;20378;-70
2024/02/18 11:08:28;;;;;;;;;;;;;;;-1.29;58.56;102125.25;5041614;28;20284;-74
2024/02/18 11:10:54;;;;;;;3.00;1.60;;;;;;;-1.43;57.30;102117.03;5038123;28;20307;-69
2024/02/18 11:13:21;;;;;;;2.23;1.77;;;;;;;-1.42;58.31;102113.53;5037193;28;20291;-72
2024/02/18 11:15:47;;;;;;;2.40;2.20;;;;;;;-1.27;58.35;102118.19;5041553;28;20298;-71
2024/02/18 11:18:14;;;;;;;2.90;1.80;;;;;;;-1.13;57.72;102115.97;5045144;28;20287;-69
2024/02/18 11:20:40;;;;;;;1.60;1.50;;;;;;;-0.98;58.02;102125.00;5040403;28;20347;-71
2024/02/18 11:23:06;;;;;;;2.93;1.87;;;;;;;-1.16;57.73;102089.91;5044069;28;20311;-69
2024/02/18 11:25:32;;;;;;;2.13;1.40;;;;;;;-0.95;56.99;102136.22;5035319;28;20295;-73
2024/02/18 11:28:00;;;;;;;3.17;1.60;;;;;;;-1.16;57.14;102110.81;5046433;28;20049;-70
2024/02/18 11:30:26;;;;;;;1.40;1.27;;;;;;;-1.32;55.78;102104.44;5047043;28;20045;-70
2024/02/18 11:32:51;;;;;;;1.53;1.33;;;;;;;-1.24;56.66;102141.63;5056137;28;20091;-72